createdAt,value
2022-09-24T07:19:38.382Z,100.00
2022-09-24T07:22:50.637Z,100.00
2022-09-24T07:26:00.770Z,100.00
2022-09-24T07:29:10.926Z,100.00
2022-09-24T07:32:21.839Z,100.00
2022-09-24T07:35:35.129Z,100.00
2022-09-24T07:38:46.620Z,100.00
2022-09-24T07:41:56.646Z,100.00
2022-09-24T07:45:07.203Z,100.00
2022-09-24T07:48:17.400Z,100.00
2022-09-24T07:51:30.502Z,100.00
2022-09-24T07:54:40.678Z,100.00
2022-09-24T07:57:51.936Z,100.00
2022-09-24T08:01:02.140Z,100.00
2022-09-24T08:04:12.343Z,100.00
2022-09-24T08:07:23.920Z,100.00
2022-09-24T08:10:34.036Z,100.00
2022-09-24T08:13:45.204Z,100.00
2022-09-24T08:16:55.298Z,100.00
2022-09-24T08:20:05.920Z,100.00
2022-09-24T08:23:17.467Z,100.00
2022-09-24T08:26:27.604Z,100.00
2022-09-24T08:29:37.544Z,99.53
2022-09-24T08:32:48.843Z,99.32
2022-09-24T08:36:00.499Z,97.96
2022-09-24T08:39:13.732Z,96.09
2022-09-24T08:42:36.495Z,94.02
2022-09-24T08:46:04.100Z,91.26
2022-09-24T08:49:20.329Z,86.81
2022-09-24T08:52:39.439Z,86.21
2022-09-24T08:59:00.584Z,84.01
2022-09-24T09:02:22.040Z,81.77
2022-09-24T09:05:50.538Z,81.52
2022-09-24T09:09:12.448Z,80.14
2022-09-24T09:12:27.113Z,79.58
2022-09-24T09:15:44.232Z,78.18
2022-09-24T09:19:01.807Z,77.52
2022-09-24T09:22:15.593Z,76.89
2022-09-24T09:29:03.145Z,74.40
2022-09-24T09:32:30.799Z,71.69
2022-09-24T09:39:32.156Z,70.50
2022-09-24T09:42:42.889Z,69.59
2022-09-24T09:46:03.201Z,68.72
2022-09-24T09:49:19.105Z,70.29
2022-09-24T09:52:31.507Z,69.90
2022-09-24T09:55:41.533Z,70.72
2022-09-24T09:58:55.827Z,71.52
2022-09-24T10:02:11.869Z,71.27
2022-09-24T10:05:28.759Z,69.54
2022-09-24T10:08:38.832Z,68.78
2022-09-24T10:11:49.207Z,67.21
2022-09-24T10:15:02.066Z,65.61
2022-09-24T10:18:15.788Z,63.83
2022-09-24T10:21:34.535Z,65.58
2022-09-24T10:24:45.635Z,65.21
2022-09-24T10:28:18.648Z,64.52
2022-09-24T10:31:32.698Z,64.39
2022-09-24T10:34:42.767Z,66.41
2022-09-24T10:37:56.083Z,67.47
2022-09-24T10:41:16.135Z,67.47
2022-09-24T10:44:33.522Z,67.58
2022-09-24T10:47:52.414Z,68.87
2022-09-24T10:51:13.344Z,68.74
2022-09-24T10:54:37.968Z,67.08
2022-09-24T10:57:59.313Z,68.17
2022-09-24T11:01:19.380Z,66.69
2022-09-24T11:04:44.211Z,63.85
2022-09-24T11:08:06.748Z,63.33
2022-09-24T11:11:31.352Z,61.47
2022-09-24T11:14:58.085Z,59.85
2022-09-24T11:18:27.306Z,59.36
2022-09-24T11:21:52.300Z,58.68
2022-09-24T11:25:25.478Z,58.66
2022-09-24T11:28:54.179Z,59.10
2022-09-24T11:32:16.579Z,60.70
2022-09-24T11:35:46.303Z,63.16
2022-09-24T11:39:12.524Z,63.75
2022-09-24T11:42:26.163Z,65.49
2022-09-24T11:45:48.251Z,66.43
2022-09-24T11:49:14.837Z,67.58
2022-09-24T11:52:33.347Z,69.62
2022-09-24T11:55:49.472Z,69.39
2022-09-24T11:59:04.585Z,69.94
2022-09-24T12:02:21.459Z,69.27
2022-09-24T12:05:38.251Z,69.41
2022-09-24T12:08:55.582Z,68.86
2022-09-24T12:12:11.755Z,69.36
2022-09-24T12:15:25.309Z,69.63
2022-09-24T12:18:44.239Z,71.01
2022-09-24T12:21:58.365Z,72.16
2022-09-24T12:25:16.859Z,72.90
2022-09-24T12:28:41.811Z,73.38
2022-09-24T12:32:11.961Z,74.84
2022-09-24T12:35:35.371Z,75.24
2022-09-24T12:38:49.532Z,75.44
2022-09-24T12:42:03.930Z,75.96
2022-09-24T12:45:18.834Z,76.72
2022-09-24T12:48:30.441Z,76.30
2022-09-24T12:51:42.147Z,75.20
2022-09-24T12:54:59.711Z,74.63
2022-09-24T12:58:30.997Z,74.35
2022-09-24T13:01:41.367Z,74.70
2022-09-24T13:05:04.553Z,74.40
2022-09-24T13:08:38.370Z,73.66
2022-09-24T13:11:48.425Z,72.91
2022-09-24T13:15:02.729Z,72.52
2022-09-24T13:18:24.653Z,71.89
2022-09-24T13:21:38.218Z,70.46
2022-09-24T13:24:54.098Z,68.59
2022-09-24T13:28:38.161Z,67.49
2022-09-24T13:31:52.674Z,69.62
2022-09-24T13:35:07.488Z,69.37
2022-09-24T13:38:22.761Z,69.00
2022-09-24T13:41:43.432Z,69.55
2022-09-24T13:44:56.728Z,66.47
2022-09-24T13:48:19.335Z,69.54
2022-09-24T13:51:32.613Z,66.62
2022-09-24T13:54:52.232Z,67.36
2022-09-24T13:58:03.642Z,67.68
2022-09-24T14:01:17.512Z,68.57
2022-09-24T14:04:28.208Z,69.46
2022-09-24T14:07:38.381Z,69.10
2022-09-24T14:10:49.080Z,69.16
2022-09-24T14:14:12.376Z,66.45
2022-09-24T14:17:24.697Z,67.39
2022-09-24T14:20:36.979Z,68.13
2022-09-24T14:23:54.983Z,68.32
2022-09-24T14:27:08.645Z,69.40
2022-09-24T14:30:23.296Z,70.11
2022-09-24T14:33:34.746Z,69.14
2022-09-24T14:36:44.869Z,69.40
2022-09-24T14:40:02.648Z,68.47
2022-09-24T14:43:18.832Z,66.57
2022-09-24T14:46:33.053Z,67.27
2022-09-24T14:49:45.581Z,66.05
2022-09-24T14:52:57.956Z,66.91
2022-09-24T14:56:21.271Z,66.27
2022-09-24T14:59:32.962Z,66.88
2022-09-24T15:02:44.493Z,66.89
2022-09-24T15:06:04.693Z,68.00
2022-09-24T15:09:25.104Z,68.41
2022-09-24T15:12:37.991Z,68.46
2022-09-24T15:15:48.498Z,69.76
2022-09-24T15:19:14.897Z,68.88
2022-09-24T15:22:26.852Z,67.98
2022-09-24T15:25:37.346Z,67.91
2022-09-24T15:28:48.273Z,69.73
2022-09-24T15:31:59.448Z,70.88
2022-09-24T15:35:15.048Z,69.44
2022-09-24T15:38:27.992Z,70.26
2022-09-24T15:41:38.037Z,71.97
2022-09-24T15:44:50.844Z,72.59
2022-09-24T15:48:00.922Z,71.04
2022-09-24T15:51:22.942Z,71.15
2022-09-24T15:54:33.113Z,71.17
2022-09-24T15:57:43.361Z,72.79
2022-09-24T16:00:54.491Z,73.43
2022-09-24T16:04:04.574Z,73.09
2022-09-24T16:07:16.018Z,74.24
2022-09-24T16:10:26.383Z,76.08
2022-09-24T16:13:36.493Z,76.99
2022-09-24T16:16:46.828Z,78.25
2022-09-24T16:19:57.046Z,78.62
2022-09-24T16:23:14.083Z,79.84
2022-09-24T16:26:24.627Z,80.98
2022-09-24T16:29:34.811Z,82.04
2022-09-24T16:32:45.599Z,83.26
2022-09-24T16:35:55.783Z,85.08
2022-09-24T16:39:07.158Z,85.86
2022-09-24T16:42:17.369Z,87.96
2022-09-24T16:45:27.530Z,88.58
2022-09-24T16:48:38.205Z,88.42
2022-09-24T16:51:48.307Z,89.58
2022-09-24T16:55:02.078Z,90.18
2022-09-24T16:58:12.156Z,91.66
2022-09-24T17:01:22.936Z,93.78
2022-09-24T17:04:34.464Z,94.15
2022-09-24T17:07:44.730Z,94.58
2022-09-24T17:11:00.263Z,96.24
2022-09-24T17:14:12.465Z,96.49
2022-09-24T17:17:30.032Z,96.78
2022-09-24T17:20:40.173Z,95.48
2022-09-24T17:23:51.758Z,97.17
2022-09-24T17:27:03.187Z,99.40
2022-09-24T17:30:13.842Z,99.09
2022-09-24T17:33:42.409Z,98.82
2022-09-24T17:36:56.709Z,99.46
2022-09-24T17:40:09.590Z,99.30
2022-09-24T17:43:23.562Z,98.98
2022-09-24T17:46:36.004Z,100.00
2022-09-24T17:49:46.776Z,100.00
2022-09-24T17:52:57.164Z,100.00
2022-09-24T17:56:09.149Z,100.00
2022-09-24T17:59:26.238Z,100.00
2022-09-24T18:02:37.114Z,100.00
2022-09-24T18:05:47.903Z,100.00
2022-09-24T18:09:00.344Z,100.00
2022-09-24T18:12:16.352Z,100.00
2022-09-24T18:15:29.438Z,100.00
2022-09-24T18:18:40.540Z,100.00
2022-09-24T18:21:51.342Z,100.00
2022-09-24T18:25:06.140Z,100.00
2022-09-24T18:28:18.699Z,100.00
2022-09-24T18:31:31.820Z,100.00
2022-09-24T18:34:41.915Z,100.00
2022-09-24T18:37:52.096Z,100.00
2022-09-24T18:41:07.827Z,100.00
2022-09-24T18:44:20.106Z,100.00
2022-09-24T18:47:31.711Z,100.00
2022-09-24T18:50:44.648Z,100.00
2022-09-24T18:53:57.017Z,100.00
2022-09-24T18:57:07.177Z,100.00
2022-09-24T19:00:31.686Z,100.00
2022-09-24T19:03:43.881Z,100.00
2022-09-24T19:06:56.806Z,100.00
2022-09-24T19:10:09.304Z,100.00
2022-09-24T19:13:25.439Z,100.00
2022-09-24T19:16:36.547Z,100.00
2022-09-24T19:19:52.423Z,100.00
2022-09-24T19:23:03.065Z,100.00
2022-09-24T19:26:14.663Z,100.00
2022-09-24T19:29:28.200Z,100.00
2022-09-24T19:32:40.027Z,100.00
2022-09-24T19:35:57.867Z,100.00
2022-09-24T19:39:08.537Z,100.00
2022-09-24T19:42:18.712Z,100.00
2022-09-24T19:45:29.766Z,100.00
2022-09-24T19:48:41.798Z,100.00
2022-09-24T19:51:53.177Z,100.00
2022-09-24T19:55:03.321Z,100.00
2022-09-24T19:58:13.735Z,100.00
2022-09-24T20:01:26.246Z,100.00
2022-09-24T20:04:36.350Z,100.00
2022-09-24T20:07:47.818Z,100.00
2022-09-24T20:11:03.248Z,100.00
2022-09-24T20:14:13.861Z,100.00
2022-09-24T20:17:29.871Z,100.00
2022-09-24T20:20:42.969Z,100.00
2022-09-24T20:23:56.051Z,100.00
2022-09-24T20:27:17.531Z,100.00
2022-09-24T20:30:27.828Z,100.00
2022-09-24T20:33:38.570Z,100.00
2022-09-24T20:36:48.979Z,100.00
2022-09-24T20:40:00.429Z,100.00
2022-09-24T20:43:10.592Z,100.00
2022-09-24T20:46:24.205Z,100.00
2022-09-24T20:49:35.086Z,100.00
2022-09-24T20:52:45.382Z,100.00
2022-09-24T20:55:57.492Z,100.00
2022-09-24T20:59:08.274Z,100.00
2022-09-24T21:02:19.536Z,100.00
2022-09-24T21:05:32.293Z,100.00
2022-09-24T21:08:44.227Z,100.00
2022-09-24T21:11:55.687Z,100.00
2022-09-24T21:15:09.354Z,100.00
2022-09-24T21:18:23.074Z,100.00
2022-09-24T21:21:39.369Z,100.00
2022-09-24T21:24:52.290Z,100.00
2022-09-24T21:28:05.171Z,100.00
2022-09-24T21:31:16.568Z,100.00
2022-09-24T21:34:28.374Z,100.00
2022-09-24T21:37:38.746Z,100.00
2022-09-24T21:40:53.770Z,100.00
2022-09-24T21:44:06.468Z,100.00
2022-09-24T21:47:16.567Z,100.00
2022-09-24T21:50:27.897Z,100.00
2022-09-24T21:53:39.007Z,100.00
2022-09-24T21:56:49.530Z,100.00
2022-09-24T22:00:01.416Z,100.00
2022-09-24T22:03:13.287Z,100.00
2022-09-24T22:06:24.433Z,100.00
2022-09-24T22:09:34.984Z,100.00
2022-09-24T22:12:46.916Z,100.00
2022-09-24T22:15:59.827Z,100.00
2022-09-24T22:19:10.336Z,100.00
2022-09-24T22:22:21.064Z,100.00
2022-09-24T22:25:31.388Z,100.00
2022-09-24T22:28:42.856Z,100.00
